Time;durP1;ratioP1;P1;durP2;ratioP2;P2;SDS_P1;SDS_P2;PMS_P1;PMS_P2;Temp;Humidity;BMP_temperature;BMP_pressure;BME280_temperature;BME280_humidity;BME280_pressure;Samples;Min_cycle;Max_cycle;Signal;HPM_P1;HPM_P2
2021/09/13 00:01:56;;;;;;;30.13;19.35;;;19.60;61.30;;;;;;5137982;27;20038;-35
2021/09/13 00:04:22;;;;;;;27.38;18.88;;;19.50;61.30;;;;;;5138526;27;20023;-35
2021/09/13 00:06:47;;;;;;;26.35;17.80;;;19.50;61.50;;;;;;5137630;27;20435;-34
2021/09/13 00:09:13;;;;;;;23.05;17.65;;;19.50;61.60;;;;;;5137936;27;20078;-34
2021/09/13 00:11:38;;;;;;;26.98;19.73;;;19.40;61.70;;;;;;5137907;27;20080;-34
2021/09/13 00:14:04;;;;;;;32.60;19.40;;;19.40;61.80;;;;;;5137755;27;20055;-35
2021/09/13 00:16:30;;;;;;;30.83;19.50;;;19.40;61.90;;;;;;5137619;27;20039;-35
2021/09/13 00:18:55;;;;;;;28.95;18.88;;;19.30;61.90;;;;;;5137873;27;20084;-35
2021/09/13 00:21:21;;;;;;;29.48;18.75;;;19.30;62.00;;;;;;5137719;27;20015;-34
2021/09/13 00:23:47;;;;;;;26.00;18.10;;;19.20;62.00;;;;;;5137768;27;20463;-35
2021/09/13 00:26:12;;;;;;;25.02;18.33;;;19.20;62.10;;;;;;5137497;27;20079;-35
2021/09/13 00:28:38;;;;;;;28.10;20.23;;;19.30;62.20;;;;;;5137878;27;20347;-35
2021/09/13 00:31:04;;;;;;;27.60;19.23;;;19.20;62.30;;;;;;5137492;27;20026;-34
2021/09/13 00:33:29;;;;;;;28.27;19.17;;;19.20;62.40;;;;;;5137908;27;20038;-34
2021/09/13 00:35:55;;;;;;;26.50;18.73;;;19.10;62.50;;;;;;5137450;27;20127;-35
2021/09/13 00:38:21;;;;;;;33.75;20.73;;;19.10;62.60;;;;;;5137783;27;20034;-36
2021/09/13 00:40:46;;;;;;;26.60;18.63;;;19.10;62.70;;;;;;5137023;27;20050;-36
2021/09/13 00:43:12;;;;;;;24.33;18.02;;;19.10;62.80;;;;;;5137908;27;20411;-35
2021/09/13 00:45:38;;;;;;;25.50;18.27;;;19.00;62.80;;;;;;5136788;27;20030;-34
2021/09/13 00:48:04;;;;;;;26.60;19.27;;;19.00;62.90;;;;;;5137657;27;20054;-34
2021/09/13 00:50:30;;;;;;;25.17;18.65;;;19.00;63.30;;;;;;5136895;27;20023;-35
2021/09/13 00:52:56;;;;;;;27.75;18.17;;;19.00;63.40;;;;;;5137380;27;20038;-34
2021/09/13 00:55:23;;;;;;;26.55;18.95;;;19.00;63.40;;;;;;5136987;27;20045;-35
2021/09/13 00:57:50;;;;;;;26.42;18.95;;;19.00;63.50;;;;;;5136730;27;20035;-36
2021/09/13 01:00:16;;;;;;;22.45;17.27;;;19.00;63.40;;;;;;5137257;27;20023;-34
2021/09/13 01:02:42;;;;;;;31.45;20.27;;;19.00;63.50;;;;;;5137199;27;20075;-34
2021/09/13 01:05:08;;;;;;;29.38;19.77;;;19.00;63.80;;;;;;5136824;27;20078;-34
2021/09/13 01:07:34;;;;;;;26.42;19.20;;;19.00;63.60;;;;;;5136857;27;20033;-33
2021/09/13 01:10:01;;;;;;;25.15;18.63;;;19.00;63.50;;;;;;5136949;27;20027;-35
2021/09/13 01:12:26;;;;;;;27.25;19.65;;;18.90;63.40;;;;;;5136990;27;20027;-34
2021/09/13 01:14:52;;;;;;;27.95;18.63;;;18.90;63.60;;;;;;5137020;27;20399;-34
2021/09/13 01:17:18;;;;;;;29.95;18.48;;;18.90;63.70;;;;;;5118432;27;20403;-34
2021/09/13 01:19:44;;;;;;;25.77;19.15;;;18.90;63.70;;;;;;5136457;27;20031;-33
2021/09/13 01:22:12;;;;;;;24.90;19.15;;;18.90;63.60;;;;;;5136710;27;20272;-33
2021/09/13 01:24:38;;;;;;;26.35;19.80;;;18.90;63.60;;;;;;5136481;28;20028;-34
2021/09/13 01:27:06;;;;;;;30.08;18.80;;;18.90;63.90;;;;;;5136413;28;20083;-34
2021/09/13 01:29:32;;;;;;;27.25;20.17;;;18.80;63.80;;;;;;5136712;28;20110;-33
2021/09/13 01:31:58;;;;;;;28.02;19.98;;;18.90;64.00;;;;;;5136656;28;20314;-34
2021/09/13 01:34:24;;;;;;;28.85;20.38;;;18.90;64.00;;;;;;5136785;28;20327;-35
2021/09/13 01:36:50;;;;;;;27.70;19.27;;;18.90;64.10;;;;;;5136711;28;20034;-34
2021/09/13 01:39:17;;;;;;;28.17;19.13;;;18.80;64.00;;;;;;5136746;28;20323;-34
2021/09/13 01:41:44;;;;;;;24.55;18.63;;;18.80;64.10;;;;;;5136392;28;20059;-33
2021/09/13 01:44:13;;;;;;;28.27;18.52;;;18.80;64.00;;;;;;5136475;28;20038;-35
2021/09/13 01:46:40;;;;;;;35.30;21.08;;;18.80;64.00;;;;;;5136197;28;20031;-34
2021/09/13 01:49:07;;;;;;;28.15;18.23;;;18.80;64.00;;;;;;5136435;28;20324;-34
2021/09/13 01:51:33;;;;;;;30.52;20.67;;;18.80;64.20;;;;;;5136378;28;20022;-36
2021/09/13 01:53:59;;;;;;;27.15;20.33;;;18.80;64.20;;;;;;5136218;28;20047;-33
2021/09/13 01:56:25;;;;;;;25.98;19.75;;;18.80;64.30;;;;;;5136351;28;20046;-34
2021/09/13 01:58:51;;;;;;;26.48;19.02;;;18.80;64.30;;;;;;5136554;28;20024;-34
2021/09/13 02:01:18;;;;;;;31.95;19.25;;;18.70;64.20;;;;;;5136570;28;20112;-34
2021/09/13 02:03:44;;;;;;;30.15;20.23;;;18.70;64.20;;;;;;5136256;28;20027;-35
2021/09/13 02:06:10;;;;;;;29.10;19.30;;;18.70;64.20;;;;;;5136191;28;20031;-34
2021/09/13 02:08:35;;;;;;;30.25;21.85;;;18.70;64.20;;;;;;5136196;28;20304;-35
2021/09/13 02:11:01;;;;;;;28.23;19.52;;;18.70;64.20;;;;;;5139144;27;20107;-34
2021/09/13 02:13:27;;;;;;;29.70;20.45;;;18.70;64.20;;;;;;5140703;27;20023;-34
2021/09/13 02:15:52;;;;;;;25.13;18.52;;;18.70;64.30;;;;;;5139836;27;20035;-34
2021/09/13 02:18:18;;;;;;;25.73;18.42;;;18.70;64.40;;;;;;5140696;27;20027;-33
2021/09/13 02:20:44;;;;;;;23.45;18.65;;;18.70;64.60;;;;;;5139721;27;20027;-34
2021/09/13 02:23:09;;;;;;;41.38;20.55;;;18.60;64.60;;;;;;5140340;27;20094;-34
2021/09/13 02:25:35;;;;;;;28.40;19.88;;;18.60;64.80;;;;;;5140230;27;20228;-34
2021/09/13 02:28:01;;;;;;;27.13;20.40;;;18.60;64.90;;;;;;5140233;27;20213;-34
2021/09/13 02:30:26;;;;;;;27.17;19.50;;;18.60;64.90;;;;;;5140094;27;20035;-35
2021/09/13 02:32:52;;;;;;;28.48;20.17;;;18.60;64.90;;;;;;5139795;27;20412;-35
2021/09/13 02:35:18;;;;;;;27.50;20.40;;;18.60;65.10;;;;;;5139772;27;20035;-35
2021/09/13 02:37:43;;;;;;;27.13;20.35;;;18.60;65.10;;;;;;5139852;27;20028;-34
2021/09/13 02:40:09;;;;;;;25.58;19.10;;;18.60;65.10;;;;;;5139907;27;20053;-35
2021/09/13 02:42:35;;;;;;;28.58;20.40;;;18.60;64.90;;;;;;5139878;27;20293;-35
2021/09/13 02:45:03;;;;;;;28.27;19.52;;;18.60;65.00;;;;;;5139815;27;20114;-33
2021/09/13 02:47:28;;;;;;;30.70;22.33;;;18.60;65.10;;;;;;5139526;27;20023;-34
2021/09/13 02:49:54;;;;;;;28.33;20.73;;;18.50;65.10;;;;;;5139632;27;20429;-37
2021/09/13 02:52:20;;;;;;;33.25;22.20;;;18.60;65.20;;;;;;5139549;27;20460;-35
2021/09/13 02:54:46;;;;;;;31.80;21.77;;;18.50;65.20;;;;;;5120616;27;20051;-34
2021/09/13 02:57:11;;;;;;;30.67;21.58;;;18.50;65.30;;;;;;5139179;27;20399;-36
2021/09/13 02:59:37;;;;;;;31.23;21.73;;;18.50;65.30;;;;;;5139331;27;20399;-36
2021/09/13 03:02:03;;;;;;;31.08;20.50;;;18.50;65.40;;;;;;5139291;27;20023;-33
2021/09/13 03:04:28;;;;;;;26.67;20.27;;;18.40;65.40;;;;;;5139110;27;20037;-34
2021/09/13 03:06:54;;;;;;;31.48;19.90;;;18.40;65.40;;;;;;5138997;27;20419;-33
2021/09/13 03:09:19;;;;;;;28.48;21.73;;;18.40;65.40;;;;;;5139264;27;20035;-33
2021/09/13 03:11:45;;;;;;;27.85;21.75;;;18.40;65.40;;;;;;5139092;27;20031;-36
2021/09/13 03:14:11;;;;;;;31.02;21.85;;;18.40;65.40;;;;;;5138995;27;20023;-37
2021/09/13 03:16:37;;;;;;;31.27;19.65;;;18.40;65.40;;;;;;5138680;27;20031;-33
2021/09/13 03:19:02;;;;;;;29.98;20.58;;;18.40;65.40;;;;;;5138577;27;20027;-33
2021/09/13 03:21:28;;;;;;;31.10;21.55;;;18.30;65.50;;;;;;5137463;27;20319;-34
2021/09/13 03:23:54;;;;;;;27.35;20.63;;;18.30;65.60;;;;;;5120530;27;20057;-36
2021/09/13 03:26:20;;;;;;;34.55;21.85;;;18.20;65.60;;;;;;5138337;27;20027;-35
2021/09/13 03:28:45;;;;;;;28.90;19.77;;;18.30;65.80;;;;;;5138630;27;20033;-35
2021/09/13 03:31:11;;;;;;;32.38;21.88;;;18.20;65.80;;;;;;5138624;27;20023;-34
2021/09/13 03:33:37;;;;;;;30.80;21.48;;;18.20;65.80;;;;;;5138516;27;20042;-33
2021/09/13 03:36:04;;;;;;;32.50;21.83;;;18.20;65.90;;;;;;5138468;27;20031;-35
2021/09/13 03:38:30;;;;;;;37.63;21.10;;;18.20;66.00;;;;;;5138858;27;20323;-34
2021/09/13 03:40:55;;;;;;;29.70;20.55;;;18.10;66.00;;;;;;5138542;27;20035;-36
2021/09/13 03:43:21;;;;;;;36.45;22.90;;;18.10;66.00;;;;;;5138480;27;20024;-33
2021/09/13 03:45:47;;;;;;;33.28;20.83;;;18.10;66.10;;;;;;5138055;27;20031;-35
2021/09/13 03:48:12;;;;;;;32.78;21.17;;;18.10;66.30;;;;;;5138839;27;20106;-34
2021/09/13 03:50:38;;;;;;;34.17;22.20;;;18.00;66.30;;;;;;5138268;27;20023;-35
2021/09/13 03:53:04;;;;;;;38.72;22.70;;;18.00;66.50;;;;;;5138749;27;20028;-35
2021/09/13 03:55:30;;;;;;;34.13;23.48;;;18.00;66.70;;;;;;5137848;27;20324;-33
2021/09/13 03:57:56;;;;;;;34.78;23.08;;;18.00;66.90;;;;;;5138396;27;20039;-34
2021/09/13 04:00:22;;;;;;;31.13;22.05;;;18.00;67.10;;;;;;5137939;27;20026;-34
2021/09/13 04:02:48;;;;;;;38.15;25.38;;;18.00;67.20;;;;;;5137878;27;20110;-34
2021/09/13 04:05:20;;;;;;;33.58;22.20;;;18.00;67.60;;;;;;5137630;27;20027;-34
2021/09/13 04:10:29;;;;;;;38.88;24.13;;;18.00;67.70;;;;;;5138044;27;20039;-36
2021/09/13 04:12:54;;;;;;;37.60;24.13;;;18.10;67.90;;;;;;5137978;27;20031;-34
2021/09/13 04:15:20;;;;;;;35.45;22.50;;;18.10;67.90;;;;;;5137362;27;20114;-36
2021/09/13 04:17:46;;;;;;;32.03;22.73;;;18.10;68.00;;;;;;5137558;27;20027;-34
2021/09/13 04:20:12;;;;;;;33.80;23.27;;;18.20;68.10;;;;;;5137428;27;20034;-35
2021/09/13 04:22:38;;;;;;;38.17;23.75;;;18.20;68.10;;;;;;5137609;27;20058;-34
2021/09/13 04:25:04;;;;;;;39.40;23.50;;;18.30;68.20;;;;;;5137662;27;20063;-34
2021/09/13 04:27:31;;;;;;;30.45;21.50;;;18.40;68.20;;;;;;5137067;27;20074;-35
2021/09/13 04:29:57;;;;;;;33.28;22.60;;;18.40;68.00;;;;;;5137583;27;20088;-34
2021/09/13 04:32:22;;;;;;;31.23;21.90;;;18.50;67.60;;;;;;5137118;27;20088;-35
2021/09/13 04:34:48;;;;;;;29.17;22.10;;;18.60;67.30;;;;;;5137227;27;20031;-35
2021/09/13 04:37:14;;;;;;;29.75;20.73;;;18.60;67.10;;;;;;5137327;27;20072;-36
2021/09/13 04:39:39;;;;;;;37.67;23.30;;;18.70;67.10;;;;;;5137077;27;20073;-35
2021/09/13 04:42:05;;;;;;;34.63;22.52;;;18.80;66.80;;;;;;5137221;27;20031;-38
2021/09/13 04:44:31;;;;;;;28.63;20.85;;;18.90;66.90;;;;;;5136756;27;20080;-36
2021/09/13 04:46:56;;;;;;;32.17;20.88;;;18.90;66.80;;;;;;5136788;27;20027;-35
2021/09/13 04:49:24;;;;;;;32.55;22.23;;;19.00;66.60;;;;;;5136746;27;20042;-34
2021/09/13 04:51:51;;;;;;;37.60;21.38;;;19.00;66.40;;;;;;5136775;27;20083;-35
2021/09/13 04:54:17;;;;;;;28.48;21.05;;;19.10;66.10;;;;;;5136704;27;20414;-34
2021/09/13 04:56:43;;;;;;;27.35;21.65;;;19.20;65.80;;;;;;5136487;27;20056;-36
2021/09/13 04:59:10;;;;;;;29.88;20.70;;;19.20;65.80;;;;;;5136494;27;20024;-35
2021/09/13 05:01:36;;;;;;;30.13;21.35;;;19.30;65.50;;;;;;5136876;27;20038;-35
2021/09/13 05:04:03;;;;;;;35.53;21.75;;;19.30;65.50;;;;;;5136725;27;20027;-35
2021/09/13 05:06:29;;;;;;;33.88;21.83;;;19.40;65.20;;;;;;5136733;27;20053;-41
2021/09/13 05:08:55;;;;;;;29.92;21.30;;;19.40;65.10;;;;;;5136688;27;20024;-35
2021/09/13 05:11:21;;;;;;;30.70;21.30;;;19.40;64.90;;;;;;5136009;27;20055;-33
2021/09/13 05:13:46;;;;;;;32.80;21.45;;;19.40;64.60;;;;;;5136486;27;20027;-34
2021/09/13 05:16:12;;;;;;;32.97;21.55;;;19.40;65.10;;;;;;5136192;27;20069;-36
2021/09/13 05:18:38;;;;;;;29.45;20.05;;;19.50;64.30;;;;;;5136486;27;20027;-35
2021/09/13 05:21:04;;;;;;;27.52;20.65;;;19.50;64.20;;;;;;5136512;27;20033;-34
2021/09/13 05:23:29;;;;;;;28.75;20.65;;;19.50;64.00;;;;;;5136702;28;20023;-34
2021/09/13 05:25:55;;;;;;;33.70;20.30;;;19.50;63.70;;;;;;5136189;28;20043;-35
2021/09/13 05:28:21;;;;;;;30.60;20.50;;;19.50;63.60;;;;;;5136323;28;20407;-36
2021/09/13 05:30:48;;;;;;;31.50;21.80;;;19.50;63.40;;;;;;5136028;28;20027;-36
2021/09/13 05:33:15;;;;;;;30.75;21.40;;;19.60;63.20;;;;;;5136772;28;20292;-36
2021/09/13 05:35:40;;;;;;;27.90;20.35;;;19.60;63.20;;;;;;5136280;28;20072;-35
2021/09/13 05:38:06;;;;;;;26.92;20.98;;;19.60;63.10;;;;;;5136747;28;20031;-36
2021/09/13 05:40:32;;;;;;;28.48;21.08;;;19.70;62.90;;;;;;5136527;28;20027;-34
2021/09/13 05:43:01;;;;;;;37.70;25.15;;;19.70;62.90;;;;;;5136632;28;20066;-35
2021/09/13 05:45:29;;;;;;;30.05;21.30;;;19.80;62.90;;;;;;5138465;27;20019;-34
2021/09/13 05:47:54;;;;;;;29.95;20.63;;;19.80;62.90;;;;;;5140603;27;20119;-33
2021/09/13 05:50:20;;;;;;;34.90;20.70;;;19.80;62.60;;;;;;5140599;27;20062;-36
2021/09/13 05:52:45;;;;;;;29.65;21.02;;;19.80;62.80;;;;;;5140735;27;20039;-36
2021/09/13 05:55:11;;;;;;;31.52;22.45;;;19.90;62.80;;;;;;5140212;27;20170;-35
2021/09/13 05:57:38;;;;;;;26.70;20.52;;;20.00;62.60;;;;;;5140237;27;20395;-35
2021/09/13 06:00:05;;;;;;;27.75;19.52;;;20.00;62.60;;;;;;5140309;27;20035;-35
2021/09/13 06:02:30;;;;;;;32.63;21.08;;;20.00;62.70;;;;;;5140480;27;20114;-36
2021/09/13 06:04:56;;;;;;;30.95;21.48;;;20.10;62.70;;;;;;5140192;27;20374;-37
2021/09/13 06:07:22;;;;;;;27.52;19.55;;;20.10;62.20;;;;;;5139968;27;20110;-34
2021/09/13 06:09:48;;;;;;;29.45;20.20;;;20.20;62.20;;;;;;5139924;27;20059;-33
2021/09/13 06:12:14;;;;;;;28.80;20.48;;;20.20;62.10;;;;;;5140294;27;20416;-33
2021/09/13 06:14:41;;;;;;;30.30;19.75;;;20.30;62.50;;;;;;5139723;27;20032;-36
2021/09/13 06:17:06;;;;;;;26.33;18.48;;;20.30;62.40;;;;;;5121462;27;20423;-37
2021/09/13 06:19:32;;;;;;;27.13;19.48;;;20.40;62.60;;;;;;5139580;27;20035;-37
2021/09/13 06:21:58;;;;;;;27.08;19.38;;;20.40;62.60;;;;;;5139979;27;20027;-34
2021/09/13 06:24:23;;;;;;;29.17;19.92;;;20.50;62.60;;;;;;5139995;27;20304;-35
2021/09/13 06:26:49;;;;;;;24.67;19.85;;;20.50;62.30;;;;;;5139313;27;20023;-35
2021/09/13 06:29:15;;;;;;;26.95;19.85;;;20.50;62.30;;;;;;5139672;27;20031;-35
2021/09/13 06:31:41;;;;;;;28.98;20.70;;;20.60;62.20;;;;;;5139315;27;20315;-38
2021/09/13 06:34:08;;;;;;;27.63;20.20;;;20.60;62.00;;;;;;5139366;27;20027;-34
2021/09/13 06:36:33;;;;;;;26.65;19.15;;;20.70;61.70;;;;;;5139269;27;20023;-36
2021/09/13 06:38:59;;;;;;;32.05;20.30;;;20.70;61.70;;;;;;5139676;27;20024;-34
2021/09/13 06:41:25;;;;;;;26.95;18.98;;;20.80;61.10;;;;;;5139655;27;20296;-35
2021/09/13 06:43:52;;;;;;;26.80;18.35;;;20.80;60.90;;;;;;5139218;27;20026;-36
2021/09/13 06:46:33;;;;;;;22.15;17.85;;;20.90;60.90;;;;;;5139134;27;20388;-35
2021/09/13 06:48:58;;;;;;;;;;;20.90;60.70;;;;;;5139961;27;20035;-35
2021/09/13 06:51:24;;;;;;;27.27;19.20;;;21.00;60.80;;;;;;5120937;27;19926;-36
2021/09/13 06:53:49;;;;;;;28.13;18.48;;;21.00;60.10;;;;;;5138947;27;20047;-37
2021/09/13 06:56:15;;;;;;;27.73;18.92;;;21.10;59.80;;;;;;5138693;27;20027;-38
2021/09/13 06:58:41;;;;;;;25.08;19.55;;;21.10;59.30;;;;;;5138867;27;20027;-37
2021/09/13 07:01:07;;;;;;;20.52;16.35;;;21.20;59.20;;;;;;5138656;27;20023;-36
2021/09/13 07:03:34;;;;;;;26.10;18.08;;;21.20;59.10;;;;;;5139309;27;20041;-37
2021/09/13 07:06:00;;;;;;;27.55;18.23;;;21.30;59.30;;;;;;5138811;27;20031;-34
2021/09/13 07:08:26;;;;;;;27.52;17.65;;;21.30;58.80;;;;;;5138565;27;20319;-37
2021/09/13 07:10:51;;;;;;;21.75;16.77;;;21.40;58.60;;;;;;5138282;27;20032;-36
2021/09/13 07:13:17;;;;;;;23.92;16.45;;;21.50;58.80;;;;;;5139042;27;20029;-34
2021/09/13 07:15:43;;;;;;;22.52;17.10;;;21.50;58.40;;;;;;5138927;27;20027;-36
2021/09/13 07:18:08;;;;;;;23.10;16.88;;;21.60;58.90;;;;;;5139054;27;20299;-35
2021/09/13 07:20:34;;;;;;;24.73;18.00;;;21.70;58.90;;;;;;5138690;27;20027;-36
2021/09/13 07:23:00;;;;;;;25.60;17.30;;;21.80;59.20;;;;;;5138824;27;20026;-37
2021/09/13 07:25:26;;;;;;;25.75;17.90;;;21.80;59.10;;;;;;5138414;27;20066;-37
2021/09/13 07:27:52;;;;;;;24.83;17.27;;;21.90;59.50;;;;;;5138718;27;20058;-34
2021/09/13 07:30:18;;;;;;;25.98;17.35;;;22.00;59.30;;;;;;5138327;27;20039;-34
2021/09/13 07:32:43;;;;;;;34.03;19.70;;;22.10;59.20;;;;;;5138365;27;20299;-38
2021/09/13 07:35:11;;;;;;;35.28;21.60;;;22.10;59.10;;;;;;5138585;27;20031;-35
2021/09/13 07:37:38;;;;;;;28.90;18.95;;;22.20;59.80;;;;;;5138391;27;20033;-37
2021/09/13 07:40:05;;;;;;;28.20;18.92;;;22.30;59.50;;;;;;5138505;27;20039;-35
2021/09/13 07:42:31;;;;;;;26.38;19.25;;;22.40;59.60;;;;;;5138446;27;20023;-35
2021/09/13 07:44:58;;;;;;;29.42;18.55;;;22.40;58.90;;;;;;5138068;27;20027;-35
2021/09/13 07:47:24;;;;;;;29.25;19.63;;;22.50;59.10;;;;;;5138108;27;20038;-38
2021/09/13 07:49:50;;;;;;;25.08;19.58;;;22.50;59.20;;;;;;5137897;27;20042;-36
2021/09/13 07:52:15;;;;;;;26.52;17.65;;;22.60;58.70;;;;;;5119583;27;20023;-35
2021/09/13 07:54:42;;;;;;;29.08;16.95;;;22.60;58.80;;;;;;5137709;27;20465;-37
2021/09/13 07:57:08;;;;;;;22.33;17.15;;;22.70;59.10;;;;;;5137666;27;20035;-35
2021/09/13 07:59:33;;;;;;;23.10;17.60;;;22.70;58.70;;;;;;5138141;27;20088;-36
2021/09/13 08:01:59;;;;;;;22.52;16.33;;;22.80;58.90;;;;;;5137726;27;20024;-37
2021/09/13 08:04:25;;;;;;;19.50;15.63;;;22.80;58.30;;;;;;5137854;27;20035;-36
2021/09/13 08:06:50;;;;;;;19.95;14.63;;;22.90;58.20;;;;;;5137087;27;20037;-37
2021/09/13 08:09:16;;;;;;;20.35;15.38;;;22.90;58.00;;;;;;5137296;27;20408;-36
2021/09/13 08:11:42;;;;;;;21.13;15.05;;;23.00;58.00;;;;;;5137251;27;20059;-37
2021/09/13 08:14:08;;;;;;;20.60;15.10;;;23.00;58.00;;;;;;5137656;27;20034;-35
2021/09/13 08:16:34;;;;;;;18.83;13.13;;;23.10;57.90;;;;;;5137123;27;20027;-35
2021/09/13 08:19:00;;;;;;;26.90;14.82;;;23.10;57.60;;;;;;5137319;27;20057;-37
2021/09/13 08:21:27;;;;;;;21.95;14.77;;;23.20;57.20;;;;;;5137509;27;20323;-36
2021/09/13 08:23:53;;;;;;;19.80;12.50;;;23.20;57.30;;;;;;5137615;27;20054;-37
2021/09/13 08:26:19;;;;;;;20.92;13.95;;;23.20;57.20;;;;;;5137403;27;20019;-36
2021/09/13 08:28:45;;;;;;;23.80;13.88;;;23.30;56.90;;;;;;5137390;27;20035;-36
2021/09/13 08:31:11;;;;;;;17.98;13.13;;;23.30;56.90;;;;;;5136740;27;20030;-36
2021/09/13 08:33:37;;;;;;;28.08;14.90;;;23.40;57.10;;;;;;5137231;27;20361;-34
2021/09/13 08:36:04;;;;;;;22.77;13.48;;;23.50;56.50;;;;;;5136943;27;20027;-35
2021/09/13 08:38:30;;;;;;;19.50;13.55;;;23.50;56.10;;;;;;5137425;27;20351;-34
2021/09/13 08:40:57;;;;;;;16.20;12.70;;;23.60;56.10;;;;;;5136750;27;20080;-37
2021/09/13 08:43:23;;;;;;;14.00;11.27;;;23.70;55.90;;;;;;5137581;27;20031;-36
2021/09/13 08:45:56;;;;;;;15.32;12.13;;;23.70;55.70;;;;;;5136652;27;20365;-37
2021/09/13 08:53:42;;;;;;;16.58;12.60;;;23.90;55.20;;;;;;5136502;27;20130;-35
2021/09/13 08:56:14;;;;;;;15.60;12.53;;;24.00;55.30;;;;;;5136481;27;20063;-36
2021/09/13 08:58:41;;;;;;;14.85;11.50;;;24.10;55.10;;;;;;5136597;27;20252;-38
2021/09/13 09:01:06;;;;;;;22.17;12.50;;;24.10;55.20;;;;;;5136344;27;20030;-37
2021/09/13 09:03:36;;;;;;;15.80;12.02;;;24.20;55.00;;;;;;5136342;27;20039;-35
2021/09/13 09:06:02;;;;;;;15.60;11.43;;;24.20;54.30;;;;;;5136459;27;20031;-33
2021/09/13 09:08:30;;;;;;;13.93;10.63;;;24.30;54.50;;;;;;5118336;27;20031;-36
2021/09/13 09:11:06;;;;;;;15.73;11.80;;;24.40;53.80;;;;;;5136246;27;20045;-37
2021/09/13 09:13:46;;;;;;;13.45;10.52;;;24.40;53.20;;;;;;5136896;27;20319;-35
2021/09/13 09:16:16;;;;;;;;;;;24.40;53.50;;;;;;5136993;27;20051;-37
2021/09/13 09:18:46;;;;;;;14.93;10.73;;;24.50;53.80;;;;;;5136778;27;19915;-38
2021/09/13 09:21:26;;;;;;;13.18;10.07;;;24.50;53.40;;;;;;5136833;27;20031;-38
2021/09/13 09:24:03;;;;;;;17.20;11.30;;;24.60;53.20;;;;;;5136326;27;20059;-37
2021/09/13 09:26:30;;;;;;;16.08;10.63;;;24.60;52.90;;;;;;5136319;28;20313;-34
2021/09/13 09:28:58;;;;;;;14.38;10.45;;;24.60;53.00;;;;;;5136303;28;20083;-34
2021/09/13 09:31:37;;;;;;;13.82;10.13;;;24.70;53.00;;;;;;5136356;28;20025;-35
2021/09/13 09:34:20;;;;;;;14.40;10.15;;;24.80;52.90;;;;;;5136527;28;20087;-34
2021/09/13 09:36:58;;;;;;;11.95;9.77;;;24.80;52.00;;;;;;5136282;28;20296;-35
2021/09/13 09:39:34;;;;;;;13.32;10.32;;;24.90;51.60;;;;;;5135999;28;20030;-37
2021/09/13 09:42:01;;;;;;;13.25;10.02;;;24.90;51.80;;;;;;5136063;28;20072;-35
2021/09/13 09:44:28;;;;;;;14.93;9.57;;;25.00;52.30;;;;;;5117891;28;20058;-35
2021/09/13 09:47:07;;;;;;;13.13;10.00;;;25.00;51.70;;;;;;5136077;28;20323;-34
2021/09/13 09:49:51;;;;;;;18.63;10.52;;;25.10;51.70;;;;;;5136076;28;20073;-36
2021/09/13 09:52:41;;;;;;;16.88;9.93;;;25.10;51.60;;;;;;5136049;28;20024;-38
2021/09/13 09:55:09;;;;;;;14.95;9.70;;;25.20;51.70;;;;;;5135694;28;20059;-35
2021/09/13 09:57:35;;;;;;;13.32;9.60;;;25.20;52.00;;;;;;5136251;28;20080;-37
2021/09/13 10:00:19;;;;;;;17.05;9.80;;;25.30;52.40;;;;;;5135935;28;20478;-34
2021/09/13 10:02:45;;;;;;;12.75;9.95;;;25.40;51.50;;;;;;5136256;28;20251;-37
2021/09/13 10:05:11;;;;;;;15.13;10.90;;;25.40;51.60;;;;;;5136006;28;20027;-35
2021/09/13 10:07:39;;;;;;;15.85;10.52;;;25.50;51.80;;;;;;5135818;28;20118;-35
2021/09/13 10:10:05;;;;;;;13.15;10.18;;;25.60;51.80;;;;;;5135690;28;20034;-38
2021/09/13 10:12:32;;;;;;;12.77;10.07;;;25.60;51.70;;;;;;5136150;28;20046;-36
2021/09/13 10:14:58;;;;;;;12.27;10.73;;;25.70;51.80;;;;;;5135763;28;20060;-36
2021/09/13 10:17:23;;;;;;;14.23;10.57;;;25.70;51.10;;;;;;5135783;28;20164;-36
2021/09/13 10:19:50;;;;;;;14.18;10.48;;;25.70;50.70;;;;;;5136071;28;20106;-38
2021/09/13 10:22:15;;;;;;;12.55;10.40;;;25.80;50.50;;;;;;5135832;28;20376;-34
2021/09/13 10:24:46;;;;;;;14.65;11.02;;;25.80;50.30;;;;;;5117529;28;20168;-38
2021/09/13 10:27:19;;;;;;;13.90;10.23;;;25.90;50.30;;;;;;5135467;28;20050;-35
2021/09/13 10:29:45;;;;;;;13.65;10.75;;;25.90;50.00;;;;;;5117433;27;20035;-37
2021/09/13 10:32:13;;;;;;;17.05;11.63;;;25.90;49.80;;;;;;5139034;27;20027;-38
2021/09/13 10:34:41;;;;;;;13.25;10.27;;;25.90;49.60;;;;;;5139255;27;20023;-38
2021/09/13 10:37:15;;;;;;;17.13;10.70;;;26.00;49.50;;;;;;5138885;27;20031;-34
2021/09/13 10:39:46;;;;;;;15.07;10.75;;;26.00;49.50;;;;;;5121201;27;20063;-36
2021/09/13 10:42:45;;;;;;;14.23;10.07;;;26.10;48.70;;;;;;5139077;27;20026;-36
2021/09/13 10:45:48;;;;;;;14.93;11.73;;;26.10;48.10;;;;;;5139407;27;20541;-33
2021/09/13 10:48:18;;;;;;;15.60;11.52;;;26.20;48.50;;;;;;5138805;27;20031;-37
2021/09/13 10:50:54;;;;;;;15.50;11.02;;;26.30;48.20;;;;;;5139047;27;20035;-37
2021/09/13 10:53:24;;;;;;;18.10;10.15;;;26.30;47.90;;;;;;5138937;27;20331;-37
2021/09/13 10:55:50;;;;;;;14.35;10.55;;;26.40;48.10;;;;;;5138816;27;20063;-36
2021/09/13 10:58:33;;;;;;;13.70;10.57;;;26.40;48.20;;;;;;5139315;27;20023;-37
2021/09/13 11:01:05;;;;;;;15.02;10.13;;;26.50;47.70;;;;;;5138498;27;20059;-33
2021/09/13 11:03:36;;;;;;;13.77;10.07;;;26.60;48.10;;;;;;5138977;27;20047;-38
2021/09/13 11:08:43;;;;;;;14.57;10.15;;;26.90;46.90;;;;;;5139152;27;20035;-36
2021/09/13 11:11:28;;;;;;;14.02;10.85;;;27.00;46.60;;;;;;5138685;27;20030;-33
2021/09/13 11:14:06;;;;;;;16.75;10.63;;;27.10;46.10;;;;;;5138629;27;20404;-33
2021/09/13 11:16:35;;;;;;;18.42;9.68;;;27.10;45.80;;;;;;5138591;27;20071;-34
2021/09/13 11:19:08;;;;;;;13.65;10.23;;;27.20;45.60;;;;;;5138399;27;20084;-38
2021/09/13 11:21:35;;;;;;;12.70;10.13;;;27.30;45.40;;;;;;5138580;27;20027;-34
2021/09/13 11:24:17;;;;;;;14.88;10.77;;;27.40;45.40;;;;;;5138276;27;20057;-36
2021/09/13 11:26:45;;;;;;;12.48;10.00;;;27.50;45.60;;;;;;5138001;27;20043;-37
2021/09/13 11:29:22;;;;;;;15.00;10.98;;;27.50;44.90;;;;;;5138307;27;20076;-36
2021/09/13 11:31:50;;;;;;;12.70;10.02;;;27.60;44.70;;;;;;5138097;27;20040;-37
2021/09/13 11:34:15;;;;;;;14.98;10.18;;;27.80;45.50;;;;;;5137895;27;20027;-37
2021/09/13 11:36:53;;;;;;;14.25;10.80;;;27.90;45.20;;;;;;5138130;27;20039;-32
2021/09/13 11:39:19;;;;;;;10.85;9.65;;;28.00;44.70;;;;;;5137916;27;20037;-32
2021/09/13 11:41:57;;;;;;;13.70;10.25;;;28.10;44.90;;;;;;5137226;27;20118;-36
2021/09/13 11:44:23;;;;;;;13.73;9.95;;;28.10;44.50;;;;;;5137735;27;20498;-37
2021/09/13 11:46:55;;;;;;;12.77;10.23;;;28.10;44.20;;;;;;5137947;27;20122;-37
2021/09/13 11:49:24;;;;;;;12.32;10.32;;;28.10;44.10;;;;;;5137820;27;20030;-33
2021/09/13 11:52:04;;;;;;;17.92;10.55;;;28.10;44.70;;;;;;5138155;27;20039;-34
2021/09/13 11:54:32;;;;;;;12.32;10.15;;;28.10;45.20;;;;;;5137851;27;20051;-36
2021/09/13 11:56:58;;;;;;;13.98;10.43;;;28.20;45.10;;;;;;5137759;27;20038;-33
2021/09/13 11:59:25;;;;;;;13.18;10.73;;;28.30;44.60;;;;;;5133393;27;20314;-33
2021/09/13 12:02:01;;;;;;;13.77;10.77;;;28.30;44.80;;;;;;5137453;27;20469;-34
2021/09/13 12:04:30;;;;;;;13.85;10.63;;;28.40;45.10;;;;;;5136661;27;20020;-37
2021/09/13 12:07:07;;;;;;;12.23;10.88;;;28.50;44.70;;;;;;5135363;27;20388;-37
2021/09/13 12:09:34;;;;;;;14.30;11.52;;;28.60;44.60;;;;;;5137528;27;20429;-36
2021/09/13 12:12:01;;;;;;;11.70;9.32;;;28.70;44.10;;;;;;5137129;27;20036;-37
2021/09/13 12:14:27;;;;;;;13.77;9.52;;;28.90;42.00;;;;;;5137128;27;20027;-33
2021/09/13 12:17:14;;;;;;;13.00;9.90;;;29.00;40.00;;;;;;5137359;27;20034;-34
2021/09/13 12:19:45;;;;;;;13.15;9.60;;;29.30;39.10;;;;;;5136931;27;20047;-36
2021/09/13 12:22:12;;;;;;;20.77;10.40;;;29.40;38.20;;;;;;5137204;27;20318;-35
2021/09/13 12:24:40;;;;;;;11.40;9.15;;;29.60;38.10;;;;;;5137213;27;20019;-35
2021/09/13 12:27:38;;;;;;;15.45;9.75;;;29.70;38.90;;;;;;5136903;27;20423;-36
2021/09/13 12:30:06;;;;;;;13.90;9.48;;;30.00;37.30;;;;;;5136760;27;20027;-36
2021/09/13 12:32:34;;;;;;;13.60;9.52;;;30.20;36.40;;;;;;5136946;27;20042;-33
2021/09/13 12:35:06;;;;;;;18.10;10.10;;;30.40;36.90;;;;;;5136803;27;20066;-33
2021/09/13 12:37:38;;;;;;;14.52;9.55;;;30.50;35.90;;;;;;5136995;27;20038;-36
2021/09/13 12:40:12;;;;;;;11.85;8.98;;;30.70;36.20;;;;;;5136626;27;20096;-32
2021/09/13 12:43:02;;;;;;;12.93;9.90;;;30.80;35.20;;;;;;5137123;27;20035;-36